sensor_id;sensor_type;location;lat;lon;timestamp;P1;durP1;ratioP1;P2;durP2;ratioP2
53313;SDS011;39202;51.468;7.146;2022-11-23T00:02:42;0.40;;;0.40;;
53313;SDS011;39202;51.468;7.146;2022-11-23T00:07:45;0.40;;;0.40;;
53313;SDS011;39202;51.468;7.146;2022-11-23T00:12:47;0.60;;;0.60;;
53313;SDS011;39202;51.468;7.146;2022-11-23T00:17:49;0.50;;;0.50;;
53313;SDS011;39202;51.468;7.146;2022-11-23T00:22:52;0.50;;;0.50;;
53313;SDS011;39202;51.468;7.146;2022-11-23T00:27:53;0.40;;;0.40;;
53313;SDS011;39202;51.468;7.146;2022-11-23T00:32:55;0.45;;;0.45;;
53313;SDS011;39202;51.468;7.146;2022-11-23T00:37:58;0.40;;;0.40;;
53313;SDS011;39202;51.468;7.146;2022-11-23T00:43:00;0.50;;;0.50;;
53313;SDS011;39202;51.468;7.146;2022-11-23T00:48:01;0.40;;;0.40;;
53313;SDS011;39202;51.468;7.146;2022-11-23T00:53:05;0.40;;;0.40;;
53313;SDS011;39202;51.468;7.146;2022-11-23T00:58:06;0.50;;;0.50;;
53313;SDS011;39202;51.468;7.146;2022-11-23T01:03:08;0.50;;;0.50;;
53313;SDS011;39202;51.468;7.146;2022-11-23T01:08:11;0.40;;;0.40;;
53313;SDS011;39202;51.468;7.146;2022-11-23T01:13:13;0.40;;;0.40;;
53313;SDS011;39202;51.468;7.146;2022-11-23T01:18:14;0.40;;;0.40;;
53313;SDS011;39202;51.468;7.146;2022-11-23T01:23:18;0.40;;;0.40;;
53313;SDS011;39202;51.468;7.146;2022-11-23T01:28:19;0.50;;;0.50;;
53313;SDS011;39202;51.468;7.146;2022-11-23T01:33:21;0.40;;;0.40;;
53313;SDS011;39202;51.468;7.146;2022-11-23T01:38:24;0.52;;;0.52;;
53313;SDS011;39202;51.468;7.146;2022-11-23T01:43:26;0.43;;;0.43;;
53313;SDS011;39202;51.468;7.146;2022-11-23T01:48:29;0.40;;;0.40;;
53313;SDS011;39202;51.468;7.146;2022-11-23T01:53:35;0.30;;;0.30;;
53313;SDS011;39202;51.468;7.146;2022-11-23T01:58:39;0.45;;;0.45;;
53313;SDS011;39202;51.468;7.146;2022-11-23T02:03:44;0.40;;;0.40;;
53313;SDS011;39202;51.468;7.146;2022-11-23T02:08:49;0.40;;;0.40;;
53313;SDS011;39202;51.468;7.146;2022-11-23T02:13:52;0.40;;;0.40;;
53313;SDS011;39202;51.468;7.146;2022-11-23T02:18:56;0.30;;;0.30;;
53313;SDS011;39202;51.468;7.146;2022-11-23T02:24:00;0.40;;;0.40;;
53313;SDS011;39202;51.468;7.146;2022-11-23T02:29:09;0.35;;;0.35;;
53313;SDS011;39202;51.468;7.146;2022-11-23T02:34:16;0.32;;;0.32;;
53313;SDS011;39202;51.468;7.146;2022-11-23T02:39:20;0.40;;;0.40;;
53313;SDS011;39202;51.468;7.146;2022-11-23T02:44:31;0.50;;;0.50;;
53313;SDS011;39202;51.468;7.146;2022-11-23T02:49:40;0.40;;;0.40;;
53313;SDS011;39202;51.468;7.146;2022-11-23T02:54:42;0.60;;;0.60;;
53313;SDS011;39202;51.468;7.146;2022-11-23T02:59:45;0.40;;;0.40;;
53313;SDS011;39202;51.468;7.146;2022-11-23T03:04:47;0.38;;;0.38;;
53313;SDS011;39202;51.468;7.146;2022-11-23T03:09:48;0.40;;;0.40;;
53313;SDS011;39202;51.468;7.146;2022-11-23T03:14:51;0.50;;;0.50;;
53313;SDS011;39202;51.468;7.146;2022-11-23T03:19:53;0.50;;;0.50;;
53313;SDS011;39202;51.468;7.146;2022-11-23T03:24:55;0.40;;;0.40;;
53313;SDS011;39202;51.468;7.146;2022-11-23T03:29:59;0.43;;;0.43;;
53313;SDS011;39202;51.468;7.146;2022-11-23T03:35:01;0.47;;;0.47;;
53313;SDS011;39202;51.468;7.146;2022-11-23T03:40:03;0.40;;;0.40;;
53313;SDS011;39202;51.468;7.146;2022-11-23T03:45:07;0.40;;;0.40;;
53313;SDS011;39202;51.468;7.146;2022-11-23T03:50:11;0.45;;;0.45;;
53313;SDS011;39202;51.468;7.146;2022-11-23T03:55:13;0.50;;;0.50;;
53313;SDS011;39202;51.468;7.146;2022-11-23T04:00:16;0.40;;;0.40;;
53313;SDS011;39202;51.468;7.146;2022-11-23T04:05:18;0.40;;;0.40;;
53313;SDS011;39202;51.468;7.146;2022-11-23T04:10:20;0.50;;;0.50;;
53313;SDS011;39202;51.468;7.146;2022-11-23T04:15:23;0.40;;;0.40;;
53313;SDS011;39202;51.468;7.146;2022-11-23T04:20:24;0.40;;;0.40;;
53313;SDS011;39202;51.468;7.146;2022-11-23T04:25:26;0.40;;;0.40;;
53313;SDS011;39202;51.468;7.146;2022-11-23T04:30:29;0.50;;;0.50;;
53313;SDS011;39202;51.468;7.146;2022-11-23T04:35:31;0.40;;;0.40;;
53313;SDS011;39202;51.468;7.146;2022-11-23T04:40:33;0.38;;;0.38;;
53313;SDS011;39202;51.468;7.146;2022-11-23T04:45:38;0.40;;;0.40;;
53313;SDS011;39202;51.468;7.146;2022-11-23T04:50:39;0.47;;;0.47;;
53313;SDS011;39202;51.468;7.146;2022-11-23T04:55:41;0.50;;;0.50;;
53313;SDS011;39202;51.468;7.146;2022-11-23T05:00:44;0.40;;;0.40;;
53313;SDS011;39202;51.468;7.146;2022-11-23T05:05:46;0.30;;;0.30;;
53313;SDS011;39202;51.468;7.146;2022-11-23T05:10:48;0.40;;;0.40;;
53313;SDS011;39202;51.468;7.146;2022-11-23T05:15:51;0.40;;;0.40;;
53313;SDS011;39202;51.468;7.146;2022-11-23T05:20:52;0.40;;;0.40;;
53313;SDS011;39202;51.468;7.146;2022-11-23T05:25:54;0.40;;;0.40;;
53313;SDS011;39202;51.468;7.146;2022-11-23T05:30:57;0.32;;;0.32;;
53313;SDS011;39202;51.468;7.146;2022-11-23T05:35:59;0.40;;;0.40;;
53313;SDS011;39202;51.468;7.146;2022-11-23T05:41:00;0.30;;;0.30;;
53313;SDS011;39202;51.468;7.146;2022-11-23T05:46:03;0.60;;;0.57;;
53313;SDS011;39202;51.468;7.146;2022-11-23T05:51:05;0.30;;;0.30;;
53313;SDS011;39202;51.468;7.146;2022-11-23T05:56:07;0.40;;;0.40;;
53313;SDS011;39202;51.468;7.146;2022-11-23T06:01:10;0.30;;;0.30;;
53313;SDS011;39202;51.468;7.146;2022-11-23T06:06:12;0.40;;;0.40;;
53313;SDS011;39202;51.468;7.146;2022-11-23T06:11:13;0.50;;;0.50;;
53313;SDS011;39202;51.468;7.146;2022-11-23T06:16:17;0.40;;;0.40;;
53313;SDS011;39202;51.468;7.146;2022-11-23T06:21:19;0.50;;;0.50;;
53313;SDS011;39202;51.468;7.146;2022-11-23T06:26:20;0.40;;;0.40;;
53313;SDS011;39202;51.468;7.146;2022-11-23T06:31:23;0.30;;;0.30;;
53313;SDS011;39202;51.468;7.146;2022-11-23T06:36:25;0.30;;;0.30;;
53313;SDS011;39202;51.468;7.146;2022-11-23T06:41:27;0.50;;;0.50;;
53313;SDS011;39202;51.468;7.146;2022-11-23T06:46:30;0.35;;;0.35;;
53313;SDS011;39202;51.468;7.146;2022-11-23T06:51:32;0.40;;;0.40;;
53313;SDS011;39202;51.468;7.146;2022-11-23T06:56:33;0.45;;;0.40;;
53313;SDS011;39202;51.468;7.146;2022-11-23T07:01:36;0.30;;;0.30;;
53313;SDS011;39202;51.468;7.146;2022-11-23T07:06:38;0.40;;;0.40;;
53313;SDS011;39202;51.468;7.146;2022-11-23T07:11:41;0.30;;;0.30;;
53313;SDS011;39202;51.468;7.146;2022-11-23T07:16:44;0.40;;;0.40;;
53313;SDS011;39202;51.468;7.146;2022-11-23T07:21:46;0.77;;;0.73;;
53313;SDS011;39202;51.468;7.146;2022-11-23T07:26:48;0.85;;;0.75;;
53313;SDS011;39202;51.468;7.146;2022-11-23T07:31:51;1.88;;;0.73;;
53313;SDS011;39202;51.468;7.146;2022-11-23T07:36:53;0.82;;;0.80;;
53313;SDS011;39202;51.468;7.146;2022-11-23T07:41:55;2.65;;;1.08;;
53313;SDS011;39202;51.468;7.146;2022-11-23T07:46:58;2.35;;;1.05;;
53313;SDS011;39202;51.468;7.146;2022-11-23T07:52:00;0.70;;;0.68;;
53313;SDS011;39202;51.468;7.146;2022-11-23T07:57:02;5.60;;;0.88;;
53313;SDS011;39202;51.468;7.146;2022-11-23T08:02:05;1.70;;;1.00;;
53313;SDS011;39202;51.468;7.146;2022-11-23T08:07:10;1.55;;;0.90;;
53313;SDS011;39202;51.468;7.146;2022-11-23T08:12:11;1.17;;;0.80;;
53313;SDS011;39202;51.468;7.146;2022-11-23T08:17:14;1.90;;;1.00;;
53313;SDS011;39202;51.468;7.146;2022-11-23T08:22:16;1.00;;;0.93;;
53313;SDS011;39202;51.468;7.146;2022-11-23T08:27:18;1.27;;;1.17;;
53313;SDS011;39202;51.468;7.146;2022-11-23T08:32:21;1.40;;;0.93;;
53313;SDS011;39202;51.468;7.146;2022-11-23T08:37:23;0.98;;;0.93;;
53313;SDS011;39202;51.468;7.146;2022-11-23T08:42:25;1.48;;;0.90;;
53313;SDS011;39202;51.468;7.146;2022-11-23T08:47:28;1.30;;;1.05;;
53313;SDS011;39202;51.468;7.146;2022-11-23T08:52:31;0.80;;;0.80;;
53313;SDS011;39202;51.468;7.146;2022-11-23T08:57:32;3.33;;;1.10;;
53313;SDS011;39202;51.468;7.146;2022-11-23T09:02:35;1.10;;;0.90;;
53313;SDS011;39202;51.468;7.146;2022-11-23T09:07:37;1.13;;;0.90;;
53313;SDS011;39202;51.468;7.146;2022-11-23T09:12:39;1.23;;;0.70;;
53313;SDS011;39202;51.468;7.146;2022-11-23T09:17:43;1.52;;;0.70;;
53313;SDS011;39202;51.468;7.146;2022-11-23T09:22:49;1.13;;;0.80;;
53313;SDS011;39202;51.468;7.146;2022-11-23T09:27:55;0.80;;;0.80;;
53313;SDS011;39202;51.468;7.146;2022-11-23T09:32:59;1.15;;;1.05;;
53313;SDS011;39202;51.468;7.146;2022-11-23T09:38:02;0.80;;;0.80;;
53313;SDS011;39202;51.468;7.146;2022-11-23T09:43:16;1.17;;;0.70;;
53313;SDS011;39202;51.468;7.146;2022-11-23T09:48:36;1.83;;;0.85;;
53313;SDS011;39202;51.468;7.146;2022-11-23T09:53:48;2.17;;;0.90;;
53313;SDS011;39202;51.468;7.146;2022-11-23T09:58:54;1.17;;;1.02;;
53313;SDS011;39202;51.468;7.146;2022-11-23T10:03:59;1.30;;;1.00;;
53313;SDS011;39202;51.468;7.146;2022-11-23T10:09:06;1.25;;;1.15;;
53313;SDS011;39202;51.468;7.146;2022-11-23T10:14:29;1.67;;;1.10;;
53313;SDS011;39202;51.468;7.146;2022-11-23T10:19:54;1.52;;;1.00;;
53313;SDS011;39202;51.468;7.146;2022-11-23T10:25:07;1.15;;;0.90;;
53313;SDS011;39202;51.468;7.146;2022-11-23T10:30:16;1.65;;;1.17;;
53313;SDS011;39202;51.468;7.146;2022-11-23T10:35:23;0.90;;;0.90;;
53313;SDS011;39202;51.468;7.146;2022-11-23T10:40:29;2.08;;;1.10;;
53313;SDS011;39202;51.468;7.146;2022-11-23T10:45:31;1.65;;;1.00;;
53313;SDS011;39202;51.468;7.146;2022-11-23T10:50:34;0.95;;;0.85;;
53313;SDS011;39202;51.468;7.146;2022-11-23T10:55:45;0.90;;;0.90;;
53313;SDS011;39202;51.468;7.146;2022-11-23T11:00:48;1.15;;;0.90;;
53313;SDS011;39202;51.468;7.146;2022-11-23T11:06:01;1.52;;;1.10;;
53313;SDS011;39202;51.468;7.146;2022-11-23T11:11:04;1.17;;;1.02;;
53313;SDS011;39202;51.468;7.146;2022-11-23T11:16:16;0.75;;;0.75;;
53313;SDS011;39202;51.468;7.146;2022-11-23T11:21:22;0.98;;;0.85;;
53313;SDS011;39202;51.468;7.146;2022-11-23T11:26:30;0.98;;;0.90;;
53313;SDS011;39202;51.468;7.146;2022-11-23T11:31:38;1.23;;;0.93;;
53313;SDS011;39202;51.468;7.146;2022-11-23T11:36:55;1.95;;;0.98;;
53313;SDS011;39202;51.468;7.146;2022-11-23T11:42:03;0.80;;;0.80;;
53313;SDS011;39202;51.468;7.146;2022-11-23T11:47:09;0.88;;;0.82;;
53313;SDS011;39202;51.468;7.146;2022-11-23T11:52:21;0.70;;;0.70;;
53313;SDS011;39202;51.468;7.146;2022-11-23T11:57:28;1.10;;;1.00;;
53313;SDS011;39202;51.468;7.146;2022-11-23T12:02:34;0.95;;;0.90;;
53313;SDS011;39202;51.468;7.146;2022-11-23T12:07:43;0.90;;;0.90;;
53313;SDS011;39202;51.468;7.146;2022-11-23T12:12:51;0.80;;;0.80;;
53313;SDS011;39202;51.468;7.146;2022-11-23T12:18:09;1.10;;;0.80;;
53313;SDS011;39202;51.468;7.146;2022-11-23T12:23:38;1.02;;;0.93;;
53313;SDS011;39202;51.468;7.146;2022-11-23T12:28:51;0.80;;;0.80;;
53313;SDS011;39202;51.468;7.146;2022-11-23T12:34:20;0.95;;;0.70;;
53313;SDS011;39202;51.468;7.146;2022-11-23T12:39:44;1.00;;;0.90;;
53313;SDS011;39202;51.468;7.146;2022-11-23T12:45:05;0.70;;;0.70;;
53313;SDS011;39202;51.468;7.146;2022-11-23T12:50:19;0.93;;;0.93;;
53313;SDS011;39202;51.468;7.146;2022-11-23T12:55:30;0.90;;;0.90;;
53313;SDS011;39202;51.468;7.146;2022-11-23T13:00:40;0.80;;;0.80;;
53313;SDS011;39202;51.468;7.146;2022-11-23T13:05:49;0.60;;;0.60;;
53313;SDS011;39202;51.468;7.146;2022-11-23T13:11:19;0.80;;;0.80;;
53313;SDS011;39202;51.468;7.146;2022-11-23T13:16:39;0.65;;;0.65;;
53313;SDS011;39202;51.468;7.146;2022-11-23T13:21:57;1.10;;;0.98;;
53313;SDS011;39202;51.468;7.146;2022-11-23T13:32:40;0.95;;;0.88;;
53313;SDS011;39202;51.468;7.146;2022-11-23T13:43:34;0.80;;;0.80;;
53313;SDS011;39202;51.468;7.146;2022-11-23T13:48:41;0.77;;;0.77;;
53313;SDS011;39202;51.468;7.146;2022-11-23T13:53:45;0.70;;;0.70;;
53313;SDS011;39202;51.468;7.146;2022-11-23T13:58:54;0.77;;;0.65;;
53313;SDS011;39202;51.468;7.146;2022-11-23T14:04:17;0.90;;;0.80;;
53313;SDS011;39202;51.468;7.146;2022-11-23T14:09:21;0.70;;;0.70;;
53313;SDS011;39202;51.468;7.146;2022-11-23T14:14:30;0.70;;;0.70;;
53313;SDS011;39202;51.468;7.146;2022-11-23T14:19:45;0.70;;;0.70;;
53313;SDS011;39202;51.468;7.146;2022-11-23T14:25:20;0.80;;;0.80;;
53313;SDS011;39202;51.468;7.146;2022-11-23T14:30:40;0.95;;;0.80;;
53313;SDS011;39202;51.468;7.146;2022-11-23T14:35:50;1.00;;;0.77;;
53313;SDS011;39202;51.468;7.146;2022-11-23T14:41:00;0.80;;;0.80;;
53313;SDS011;39202;51.468;7.146;2022-11-23T14:46:12;0.80;;;0.80;;
53313;SDS011;39202;51.468;7.146;2022-11-23T14:51:15;0.80;;;0.80;;
53313;SDS011;39202;51.468;7.146;2022-11-23T14:56:20;0.60;;;0.60;;
53313;SDS011;39202;51.468;7.146;2022-11-23T15:01:28;0.63;;;0.60;;
53313;SDS011;39202;51.468;7.146;2022-11-23T15:06:31;0.60;;;0.57;;
53313;SDS011;39202;51.468;7.146;2022-11-23T15:11:37;0.70;;;0.70;;
53313;SDS011;39202;51.468;7.146;2022-11-23T15:16:40;0.60;;;0.60;;
53313;SDS011;39202;51.468;7.146;2022-11-23T15:21:41;0.70;;;0.70;;
53313;SDS011;39202;51.468;7.146;2022-11-23T15:26:44;1.95;;;0.80;;
53313;SDS011;39202;51.468;7.146;2022-11-23T15:31:48;1.20;;;1.00;;
53313;SDS011;39202;51.468;7.146;2022-11-23T15:36:49;2.15;;;1.13;;
53313;SDS011;39202;51.468;7.146;2022-11-23T15:41:52;0.90;;;0.90;;
53313;SDS011;39202;51.468;7.146;2022-11-23T15:46:58;0.68;;;0.68;;
53313;SDS011;39202;51.468;7.146;2022-11-23T15:52:01;0.80;;;0.80;;
53313;SDS011;39202;51.468;7.146;2022-11-23T15:57:05;0.77;;;0.77;;
53313;SDS011;39202;51.468;7.146;2022-11-23T16:02:14;1.30;;;0.73;;
53313;SDS011;39202;51.468;7.146;2022-11-23T16:07:18;1.15;;;1.00;;
53313;SDS011;39202;51.468;7.146;2022-11-23T16:12:22;0.75;;;0.75;;
53313;SDS011;39202;51.468;7.146;2022-11-23T16:17:27;2.13;;;0.70;;
53313;SDS011;39202;51.468;7.146;2022-11-23T16:22:29;0.60;;;0.60;;
53313;SDS011;39202;51.468;7.146;2022-11-23T16:27:34;0.73;;;0.70;;
53313;SDS011;39202;51.468;7.146;2022-11-23T16:32:38;1.10;;;0.68;;
53313;SDS011;39202;51.468;7.146;2022-11-23T16:37:40;0.75;;;0.75;;
53313;SDS011;39202;51.468;7.146;2022-11-23T16:42:42;0.85;;;0.85;;
53313;SDS011;39202;51.468;7.146;2022-11-23T16:47:51;0.70;;;0.70;;
53313;SDS011;39202;51.468;7.146;2022-11-23T16:52:53;0.80;;;0.80;;
53313;SDS011;39202;51.468;7.146;2022-11-23T16:57:55;0.93;;;0.77;;
53313;SDS011;39202;51.468;7.146;2022-11-23T17:02:58;1.52;;;0.73;;
53313;SDS011;39202;51.468;7.146;2022-11-23T17:08:00;0.85;;;0.80;;
53313;SDS011;39202;51.468;7.146;2022-11-23T17:13:01;0.68;;;0.68;;
53313;SDS011;39202;51.468;7.146;2022-11-23T17:18:07;0.85;;;0.80;;
53313;SDS011;39202;51.468;7.146;2022-11-23T17:23:12;0.60;;;0.47;;
53313;SDS011;39202;51.468;7.146;2022-11-23T17:28:15;1.55;;;0.80;;
53313;SDS011;39202;51.468;7.146;2022-11-23T17:33:22;0.65;;;0.65;;
53313;SDS011;39202;51.468;7.146;2022-11-23T17:38:24;0.75;;;0.50;;
53313;SDS011;39202;51.468;7.146;2022-11-23T17:43:26;0.60;;;0.60;;
53313;SDS011;39202;51.468;7.146;2022-11-23T17:48:29;0.60;;;0.60;;
53313;SDS011;39202;51.468;7.146;2022-11-23T17:53:33;0.60;;;0.60;;
53313;SDS011;39202;51.468;7.146;2022-11-23T17:58:34;0.70;;;0.70;;
53313;SDS011;39202;51.468;7.146;2022-11-23T18:03:37;0.98;;;0.90;;
53313;SDS011;39202;51.468;7.146;2022-11-23T18:08:40;0.57;;;0.57;;
53313;SDS011;39202;51.468;7.146;2022-11-23T18:13:42;0.70;;;0.70;;
53313;SDS011;39202;51.468;7.146;2022-11-23T18:18:47;0.73;;;0.73;;
53313;SDS011;39202;51.468;7.146;2022-11-23T18:23:50;0.60;;;0.60;;
53313;SDS011;39202;51.468;7.146;2022-11-23T18:28:52;0.65;;;0.65;;
53313;SDS011;39202;51.468;7.146;2022-11-23T18:33:55;0.50;;;0.50;;
53313;SDS011;39202;51.468;7.146;2022-11-23T18:38:56;0.60;;;0.60;;
53313;SDS011;39202;51.468;7.146;2022-11-23T18:44:00;0.65;;;0.60;;
53313;SDS011;39202;51.468;7.146;2022-11-23T18:49:03;0.55;;;0.55;;
53313;SDS011;39202;51.468;7.146;2022-11-23T18:54:05;0.60;;;0.60;;
53313;SDS011;39202;51.468;7.146;2022-11-23T18:59:07;0.70;;;0.70;;
53313;SDS011;39202;51.468;7.146;2022-11-23T19:04:11;0.80;;;0.60;;
53313;SDS011;39202;51.468;7.146;2022-11-23T19:09:12;0.70;;;0.70;;
53313;SDS011;39202;51.468;7.146;2022-11-23T19:14:14;0.60;;;0.60;;
53313;SDS011;39202;51.468;7.146;2022-11-23T19:19:17;0.52;;;0.52;;
53313;SDS011;39202;51.468;7.146;2022-11-23T19:24:19;0.60;;;0.60;;
53313;SDS011;39202;51.468;7.146;2022-11-23T19:29:20;0.50;;;0.50;;
53313;SDS011;39202;51.468;7.146;2022-11-23T19:34:25;0.50;;;0.50;;
53313;SDS011;39202;51.468;7.146;2022-11-23T19:39:26;0.65;;;0.60;;
53313;SDS011;39202;51.468;7.146;2022-11-23T19:44:28;0.40;;;0.40;;
53313;SDS011;39202;51.468;7.146;2022-11-23T19:49:31;0.50;;;0.50;;
53313;SDS011;39202;51.468;7.146;2022-11-23T19:54:33;0.85;;;0.60;;
53313;SDS011;39202;51.468;7.146;2022-11-23T19:59:35;0.60;;;0.60;;
53313;SDS011;39202;51.468;7.146;2022-11-23T20:04:38;0.50;;;0.50;;
53313;SDS011;39202;51.468;7.146;2022-11-23T20:09:39;0.60;;;0.60;;
53313;SDS011;39202;51.468;7.146;2022-11-23T20:14:41;0.50;;;0.50;;
53313;SDS011;39202;51.468;7.146;2022-11-23T20:19:44;0.60;;;0.60;;
53313;SDS011;39202;51.468;7.146;2022-11-23T20:24:46;0.55;;;0.55;;
53313;SDS011;39202;51.468;7.146;2022-11-23T20:29:47;0.50;;;0.50;;
53313;SDS011;39202;51.468;7.146;2022-11-23T20:34:50;0.40;;;0.40;;
53313;SDS011;39202;51.468;7.146;2022-11-23T20:39:52;0.50;;;0.50;;
53313;SDS011;39202;51.468;7.146;2022-11-23T20:44:54;0.50;;;0.50;;
53313;SDS011;39202;51.468;7.146;2022-11-23T20:49:57;0.50;;;0.50;;
53313;SDS011;39202;51.468;7.146;2022-11-23T20:54:59;0.50;;;0.50;;
53313;SDS011;39202;51.468;7.146;2022-11-23T21:00:00;0.40;;;0.40;;
53313;SDS011;39202;51.468;7.146;2022-11-23T21:05:04;0.57;;;0.57;;
53313;SDS011;39202;51.468;7.146;2022-11-23T21:10:06;0.50;;;0.50;;
53313;SDS011;39202;51.468;7.146;2022-11-23T21:15:08;0.40;;;0.40;;
53313;SDS011;39202;51.468;7.146;2022-11-23T21:20:11;0.60;;;0.60;;
53313;SDS011;39202;51.468;7.146;2022-11-23T21:25:13;0.73;;;0.73;;
53313;SDS011;39202;51.468;7.146;2022-11-23T21:30:15;0.40;;;0.40;;
53313;SDS011;39202;51.468;7.146;2022-11-23T21:35:18;0.50;;;0.50;;
53313;SDS011;39202;51.468;7.146;2022-11-23T21:40:20;0.45;;;0.45;;
53313;SDS011;39202;51.468;7.146;2022-11-23T21:45:22;0.40;;;0.40;;
53313;SDS011;39202;51.468;7.146;2022-11-23T21:50:25;0.50;;;0.50;;
53313;SDS011;39202;51.468;7.146;2022-11-23T21:55:27;0.43;;;0.43;;
53313;SDS011;39202;51.468;7.146;2022-11-23T22:00:29;1.00;;;0.52;;
53313;SDS011;39202;51.468;7.146;2022-11-23T22:05:32;0.50;;;0.50;;
53313;SDS011;39202;51.468;7.146;2022-11-23T22:10:33;0.50;;;0.50;;
53313;SDS011;39202;51.468;7.146;2022-11-23T22:15:35;0.50;;;0.50;;
53313;SDS011;39202;51.468;7.146;2022-11-23T22:20:39;0.40;;;0.40;;
53313;SDS011;39202;51.468;7.146;2022-11-23T22:25:41;0.47;;;0.47;;
53313;SDS011;39202;51.468;7.146;2022-11-23T22:30:43;0.50;;;0.50;;
53313;SDS011;39202;51.468;7.146;2022-11-23T22:35:57;0.63;;;0.63;;
53313;SDS011;39202;51.468;7.146;2022-11-23T22:41:00;0.60;;;0.60;;
53313;SDS011;39202;51.468;7.146;2022-11-23T22:46:03;0.50;;;0.50;;
53313;SDS011;39202;51.468;7.146;2022-11-23T22:51:08;0.50;;;0.50;;
53313;SDS011;39202;51.468;7.146;2022-11-23T22:56:11;0.57;;;0.57;;
53313;SDS011;39202;51.468;7.146;2022-11-23T23:01:14;0.47;;;0.47;;
53313;SDS011;39202;51.468;7.146;2022-11-23T23:06:19;0.55;;;0.55;;
53313;SDS011;39202;51.468;7.146;2022-11-23T23:11:22;0.43;;;0.43;;
53313;SDS011;39202;51.468;7.146;2022-11-23T23:16:24;0.50;;;0.50;;
53313;SDS011;39202;51.468;7.146;2022-11-23T23:21:28;0.65;;;0.65;;
53313;SDS011;39202;51.468;7.146;2022-11-23T23:26:30;0.50;;;0.50;;
53313;SDS011;39202;51.468;7.146;2022-11-23T23:31:32;0.50;;;0.50;;
53313;SDS011;39202;51.468;7.146;2022-11-23T23:36:37;0.40;;;0.40;;
53313;SDS011;39202;51.468;7.146;2022-11-23T23:41:39;0.55;;;0.55;;
53313;SDS011;39202;51.468;7.146;2022-11-23T23:46:41;0.40;;;0.40;;
53313;SDS011;39202;51.468;7.146;2022-11-23T23:51:44;0.60;;;0.60;;
53313;SDS011;39202;51.468;7.146;2022-11-23T23:56:46;0.45;;;0.45;;
